sensor_id;sensor_type;location;lat;lon;timestamp;temperature;humidity
11132;DHT22;5620;53.570;9.718;2023-02-15T00:00:44;4.60;99.90
11132;DHT22;5620;53.570;9.718;2023-02-15T00:03:10;4.70;99.90
11132;DHT22;5620;53.570;9.718;2023-02-15T00:05:39;4.70;99.90
11132;DHT22;5620;53.570;9.718;2023-02-15T00:08:10;4.70;99.90
11132;DHT22;5620;53.570;9.718;2023-02-15T00:10:39;4.80;99.90
11132;DHT22;5620;53.570;9.718;2023-02-15T00:13:07;4.90;99.90
11132;DHT22;5620;53.570;9.718;2023-02-15T00:15:34;5.00;99.90
11132;DHT22;5620;53.570;9.718;2023-02-15T00:18:02;5.00;99.90
11132;DHT22;5620;53.570;9.718;2023-02-15T00:20:30;5.10;99.90
11132;DHT22;5620;53.570;9.718;2023-02-15T00:22:58;5.10;99.90
11132;DHT22;5620;53.570;9.718;2023-02-15T00:25:25;5.10;99.90
11132;DHT22;5620;53.570;9.718;2023-02-15T00:27:53;5.20;99.90
11132;DHT22;5620;53.570;9.718;2023-02-15T00:30:21;5.20;99.90
11132;DHT22;5620;53.570;9.718;2023-02-15T00:32:49;5.20;99.90
11132;DHT22;5620;53.570;9.718;2023-02-15T00:35:17;5.20;99.90
11132;DHT22;5620;53.570;9.718;2023-02-15T00:37:44;5.20;99.90
11132;DHT22;5620;53.570;9.718;2023-02-15T00:40:09;5.20;99.90
11132;DHT22;5620;53.570;9.718;2023-02-15T00:42:38;5.20;99.90
11132;DHT22;5620;53.570;9.718;2023-02-15T00:45:06;5.20;99.90
11132;DHT22;5620;53.570;9.718;2023-02-15T00:47:32;5.20;99.90
11132;DHT22;5620;53.570;9.718;2023-02-15T00:49:59;5.20;99.90
11132;DHT22;5620;53.570;9.718;2023-02-15T00:52:26;5.30;99.90
11132;DHT22;5620;53.570;9.718;2023-02-15T00:54:53;5.20;99.90
11132;DHT22;5620;53.570;9.718;2023-02-15T00:57:20;5.20;99.90
11132;DHT22;5620;53.570;9.718;2023-02-15T00:59:48;5.20;99.90
11132;DHT22;5620;53.570;9.718;2023-02-15T01:02:13;5.20;99.90
11132;DHT22;5620;53.570;9.718;2023-02-15T01:04:42;5.20;99.90
11132;DHT22;5620;53.570;9.718;2023-02-15T01:07:10;5.30;99.90
11132;DHT22;5620;53.570;9.718;2023-02-15T01:09:38;5.30;99.90
11132;DHT22;5620;53.570;9.718;2023-02-15T01:12:06;5.30;99.90
11132;DHT22;5620;53.570;9.718;2023-02-15T01:14:33;5.30;99.90
11132;DHT22;5620;53.570;9.718;2023-02-15T01:17:00;5.30;99.90
11132;DHT22;5620;53.570;9.718;2023-02-15T01:19:27;5.40;99.90
11132;DHT22;5620;53.570;9.718;2023-02-15T01:21:54;5.40;99.90
11132;DHT22;5620;53.570;9.718;2023-02-15T01:24:21;5.50;99.90
11132;DHT22;5620;53.570;9.718;2023-02-15T01:26:47;5.60;99.90
11132;DHT22;5620;53.570;9.718;2023-02-15T01:29:14;5.60;99.90
11132;DHT22;5620;53.570;9.718;2023-02-15T01:31:41;5.60;99.90
11132;DHT22;5620;53.570;9.718;2023-02-15T01:34:09;5.60;99.90
11132;DHT22;5620;53.570;9.718;2023-02-15T01:36:36;5.60;99.90
11132;DHT22;5620;53.570;9.718;2023-02-15T01:39:03;5.60;99.90
11132;DHT22;5620;53.570;9.718;2023-02-15T01:41:30;5.60;99.90
11132;DHT22;5620;53.570;9.718;2023-02-15T01:44:03;5.60;99.90
11132;DHT22;5620;53.570;9.718;2023-02-15T01:46:51;5.60;99.90
11132;DHT22;5620;53.570;9.718;2023-02-15T01:49:22;5.60;99.90
11132;DHT22;5620;53.570;9.718;2023-02-15T01:51:51;5.60;99.90
11132;DHT22;5620;53.570;9.718;2023-02-15T01:54:32;5.60;99.90
11132;DHT22;5620;53.570;9.718;2023-02-15T01:57:03;5.50;99.90
11132;DHT22;5620;53.570;9.718;2023-02-15T01:59:32;5.50;99.90
11132;DHT22;5620;53.570;9.718;2023-02-15T02:02:01;5.50;99.90
11132;DHT22;5620;53.570;9.718;2023-02-15T02:04:51;5.50;99.90
11132;DHT22;5620;53.570;9.718;2023-02-15T02:07:21;5.50;99.90
11132;DHT22;5620;53.570;9.718;2023-02-15T02:09:50;5.40;99.90
11132;DHT22;5620;53.570;9.718;2023-02-15T02:12:18;5.40;99.90
11132;DHT22;5620;53.570;9.718;2023-02-15T02:14:49;5.40;99.90
11132;DHT22;5620;53.570;9.718;2023-02-15T02:35:08;5.60;99.90
11132;DHT22;5620;53.570;9.718;2023-02-15T02:43:48;5.60;99.90
11132;DHT22;5620;53.570;9.718;2023-02-15T02:47:13;5.60;99.90
11132;DHT22;5620;53.570;9.718;2023-02-15T02:49:52;5.70;99.90
11132;DHT22;5620;53.570;9.718;2023-02-15T02:58:40;5.60;99.90
11132;DHT22;5620;53.570;9.718;2023-02-15T03:02:01;5.70;99.90
11132;DHT22;5620;53.570;9.718;2023-02-15T03:04:26;5.70;99.90
11132;DHT22;5620;53.570;9.718;2023-02-15T03:07:08;5.70;99.90
11132;DHT22;5620;53.570;9.718;2023-02-15T03:09:53;5.70;99.90
11132;DHT22;5620;53.570;9.718;2023-02-15T03:12:30;5.70;99.90
11132;DHT22;5620;53.570;9.718;2023-02-15T03:15:22;5.70;99.90
11132;DHT22;5620;53.570;9.718;2023-02-15T03:17:57;5.70;99.90
11132;DHT22;5620;53.570;9.718;2023-02-15T03:20:35;5.70;99.90
11132;DHT22;5620;53.570;9.718;2023-02-15T03:23:06;5.60;99.90
11132;DHT22;5620;53.570;9.718;2023-02-15T03:26:02;5.60;99.90
11132;DHT22;5620;53.570;9.718;2023-02-15T03:28:43;5.60;99.90
11132;DHT22;5620;53.570;9.718;2023-02-15T03:31:12;5.50;99.90
11132;DHT22;5620;53.570;9.718;2023-02-15T03:33:44;5.50;99.90
11132;DHT22;5620;53.570;9.718;2023-02-15T03:42:22;5.40;99.90
11132;DHT22;5620;53.570;9.718;2023-02-15T03:45:28;5.40;99.90
11132;DHT22;5620;53.570;9.718;2023-02-15T03:48:07;5.40;99.90
11132;DHT22;5620;53.570;9.718;2023-02-15T03:50:38;5.40;99.90
11132;DHT22;5620;53.570;9.718;2023-02-15T03:53:10;5.30;99.90
11132;DHT22;5620;53.570;9.718;2023-02-15T03:55:37;5.30;99.90
11132;DHT22;5620;53.570;9.718;2023-02-15T03:58:04;5.30;99.90
11132;DHT22;5620;53.570;9.718;2023-02-15T04:00:35;5.30;99.90
11132;DHT22;5620;53.570;9.718;2023-02-15T04:03:26;5.30;99.90
11132;DHT22;5620;53.570;9.718;2023-02-15T04:05:55;5.20;99.90
11132;DHT22;5620;53.570;9.718;2023-02-15T04:08:23;5.30;99.90
11132;DHT22;5620;53.570;9.718;2023-02-15T04:10:49;5.30;99.90
11132;DHT22;5620;53.570;9.718;2023-02-15T04:13:16;5.40;99.90
11132;DHT22;5620;53.570;9.718;2023-02-15T04:15:44;5.40;99.90
11132;DHT22;5620;53.570;9.718;2023-02-15T04:18:13;5.40;99.90
11132;DHT22;5620;53.570;9.718;2023-02-15T04:20:45;5.40;99.90
11132;DHT22;5620;53.570;9.718;2023-02-15T04:23:13;5.40;99.90
11132;DHT22;5620;53.570;9.718;2023-02-15T04:25:39;5.40;99.90
11132;DHT22;5620;53.570;9.718;2023-02-15T04:28:07;5.30;99.90
11132;DHT22;5620;53.570;9.718;2023-02-15T04:30:34;5.30;99.90
11132;DHT22;5620;53.570;9.718;2023-02-15T04:33:01;5.30;99.90
11132;DHT22;5620;53.570;9.718;2023-02-15T04:35:29;5.30;99.90
11132;DHT22;5620;53.570;9.718;2023-02-15T04:37:57;5.20;99.90
11132;DHT22;5620;53.570;9.718;2023-02-15T04:40:24;5.20;99.90
11132;DHT22;5620;53.570;9.718;2023-02-15T04:42:49;5.10;99.90
11132;DHT22;5620;53.570;9.718;2023-02-15T04:45:16;5.00;99.90
11132;DHT22;5620;53.570;9.718;2023-02-15T04:47:44;5.00;99.90
11132;DHT22;5620;53.570;9.718;2023-02-15T04:50:10;5.00;99.90
11132;DHT22;5620;53.570;9.718;2023-02-15T04:52:37;5.00;99.90
11132;DHT22;5620;53.570;9.718;2023-02-15T04:55:05;5.00;99.90
11132;DHT22;5620;53.570;9.718;2023-02-15T04:57:34;5.10;99.90
11132;DHT22;5620;53.570;9.718;2023-02-15T05:00:01;5.00;99.90
11132;DHT22;5620;53.570;9.718;2023-02-15T05:02:26;5.00;99.90
11132;DHT22;5620;53.570;9.718;2023-02-15T05:04:53;5.00;99.90
11132;DHT22;5620;53.570;9.718;2023-02-15T05:07:18;5.00;99.90
11132;DHT22;5620;53.570;9.718;2023-02-15T05:09:44;4.90;99.90
11132;DHT22;5620;53.570;9.718;2023-02-15T05:12:10;4.80;99.90
11132;DHT22;5620;53.570;9.718;2023-02-15T05:14:37;4.70;99.90
11132;DHT22;5620;53.570;9.718;2023-02-15T05:17:05;4.60;99.90
11132;DHT22;5620;53.570;9.718;2023-02-15T05:19:33;4.60;99.90
11132;DHT22;5620;53.570;9.718;2023-02-15T05:22:00;4.50;99.90
11132;DHT22;5620;53.570;9.718;2023-02-15T05:24:26;4.50;99.90
11132;DHT22;5620;53.570;9.718;2023-02-15T05:26:53;4.50;99.90
11132;DHT22;5620;53.570;9.718;2023-02-15T05:29:20;4.50;99.90
11132;DHT22;5620;53.570;9.718;2023-02-15T05:31:47;4.50;99.90
11132;DHT22;5620;53.570;9.718;2023-02-15T05:34:13;4.40;99.90
11132;DHT22;5620;53.570;9.718;2023-02-15T05:36:40;4.40;99.90
11132;DHT22;5620;53.570;9.718;2023-02-15T05:39:07;4.40;99.90
11132;DHT22;5620;53.570;9.718;2023-02-15T05:41:36;4.30;99.90
11132;DHT22;5620;53.570;9.718;2023-02-15T05:44:03;4.30;99.90
11132;DHT22;5620;53.570;9.718;2023-02-15T05:46:31;4.20;99.90
11132;DHT22;5620;53.570;9.718;2023-02-15T05:48:57;4.20;99.90
11132;DHT22;5620;53.570;9.718;2023-02-15T05:51:24;4.20;99.90
11132;DHT22;5620;53.570;9.718;2023-02-15T05:53:49;4.20;99.90
11132;DHT22;5620;53.570;9.718;2023-02-15T05:56:15;4.20;99.90
11132;DHT22;5620;53.570;9.718;2023-02-15T05:58:43;4.10;99.90
11132;DHT22;5620;53.570;9.718;2023-02-15T06:01:29;4.10;99.90
11132;DHT22;5620;53.570;9.718;2023-02-15T06:03:57;4.00;99.90
11132;DHT22;5620;53.570;9.718;2023-02-15T06:06:24;3.90;99.90
11132;DHT22;5620;53.570;9.718;2023-02-15T06:08:52;3.90;99.90
11132;DHT22;5620;53.570;9.718;2023-02-15T06:11:19;3.80;99.90
11132;DHT22;5620;53.570;9.718;2023-02-15T06:13:47;3.80;99.90
11132;DHT22;5620;53.570;9.718;2023-02-15T06:16:15;3.80;99.90
11132;DHT22;5620;53.570;9.718;2023-02-15T06:18:40;3.70;99.90
11132;DHT22;5620;53.570;9.718;2023-02-15T06:21:07;3.80;99.90
11132;DHT22;5620;53.570;9.718;2023-02-15T06:23:34;3.80;99.90
11132;DHT22;5620;53.570;9.718;2023-02-15T06:26:01;3.70;99.90
11132;DHT22;5620;53.570;9.718;2023-02-15T06:28:28;3.80;99.90
11132;DHT22;5620;53.570;9.718;2023-02-15T06:30:56;3.70;99.90
11132;DHT22;5620;53.570;9.718;2023-02-15T06:33:23;3.70;99.90
11132;DHT22;5620;53.570;9.718;2023-02-15T06:35:51;3.70;99.90
11132;DHT22;5620;53.570;9.718;2023-02-15T06:38:19;3.70;99.90
11132;DHT22;5620;53.570;9.718;2023-02-15T06:40:46;3.60;99.90
11132;DHT22;5620;53.570;9.718;2023-02-15T06:43:13;3.70;99.90
11132;DHT22;5620;53.570;9.718;2023-02-15T06:45:41;3.70;99.90
11132;DHT22;5620;53.570;9.718;2023-02-15T06:48:08;3.70;99.90
11132;DHT22;5620;53.570;9.718;2023-02-15T06:50:35;3.80;99.90
11132;DHT22;5620;53.570;9.718;2023-02-15T06:53:02;3.80;99.90
11132;DHT22;5620;53.570;9.718;2023-02-15T06:55:29;3.80;99.90
11132;DHT22;5620;53.570;9.718;2023-02-15T06:57:57;3.90;99.90
11132;DHT22;5620;53.570;9.718;2023-02-15T07:00:24;3.80;99.90
11132;DHT22;5620;53.570;9.718;2023-02-15T07:02:58;3.90;99.90
11132;DHT22;5620;53.570;9.718;2023-02-15T07:05:28;4.00;99.90
11132;DHT22;5620;53.570;9.718;2023-02-15T07:07:55;4.00;99.90
11132;DHT22;5620;53.570;9.718;2023-02-15T07:10:22;4.00;99.90
11132;DHT22;5620;53.570;9.718;2023-02-15T07:12:48;4.00;99.90
11132;DHT22;5620;53.570;9.718;2023-02-15T07:15:17;4.10;99.90
11132;DHT22;5620;53.570;9.718;2023-02-15T07:17:44;4.10;99.90
11132;DHT22;5620;53.570;9.718;2023-02-15T07:20:17;4.10;99.90
11132;DHT22;5620;53.570;9.718;2023-02-15T07:22:47;4.10;99.90
11132;DHT22;5620;53.570;9.718;2023-02-15T07:25:16;4.10;99.90
11132;DHT22;5620;53.570;9.718;2023-02-15T07:27:43;4.10;90.60
11132;DHT22;5620;53.570;9.718;2023-02-15T07:30:12;4.10;95.70
11132;DHT22;5620;53.570;9.718;2023-02-15T07:32:39;4.20;93.50
11132;DHT22;5620;53.570;9.718;2023-02-15T07:35:07;4.20;73.90
11132;DHT22;5620;53.570;9.718;2023-02-15T07:37:36;4.10;68.10
11132;DHT22;5620;53.570;9.718;2023-02-15T07:40:04;4.10;45.10
11132;DHT22;5620;53.570;9.718;2023-02-15T07:42:30;4.20;54.90
11132;DHT22;5620;53.570;9.718;2023-02-15T07:44:58;4.20;18.20
11132;DHT22;5620;53.570;9.718;2023-02-15T07:47:26;4.10;10.00
11132;DHT22;5620;53.570;9.718;2023-02-15T07:49:54;4.20;21.30
11132;DHT22;5620;53.570;9.718;2023-02-15T07:52:21;4.20;25.00
11132;DHT22;5620;53.570;9.718;2023-02-15T07:54:48;4.30;29.50
11132;DHT22;5620;53.570;9.718;2023-02-15T07:57:15;4.30;26.70
11132;DHT22;5620;53.570;9.718;2023-02-15T07:59:42;4.30;6.20
11132;DHT22;5620;53.570;9.718;2023-02-15T08:02:11;4.30;1.00
11132;DHT22;5620;53.570;9.718;2023-02-15T08:04:41;4.30;1.00
11132;DHT22;5620;53.570;9.718;2023-02-15T08:07:06;4.40;29.00
11132;DHT22;5620;53.570;9.718;2023-02-15T08:09:33;4.50;26.70
11132;DHT22;5620;53.570;9.718;2023-02-15T08:11:58;4.60;19.30
11132;DHT22;5620;53.570;9.718;2023-02-15T08:14:27;4.70;2.20
11132;DHT22;5620;53.570;9.718;2023-02-15T08:17:16;4.70;1.00
11132;DHT22;5620;53.570;9.718;2023-02-15T08:19:44;4.70;1.00
11132;DHT22;5620;53.570;9.718;2023-02-15T08:22:14;4.60;1.00
11132;DHT22;5620;53.570;9.718;2023-02-15T08:24:40;4.60;1.00
11132;DHT22;5620;53.570;9.718;2023-02-15T08:27:08;4.60;1.00
11132;DHT22;5620;53.570;9.718;2023-02-15T08:29:36;4.70;1.00
11132;DHT22;5620;53.570;9.718;2023-02-15T08:32:06;4.80;1.00
11132;DHT22;5620;53.570;9.718;2023-02-15T08:34:38;4.90;1.00
11132;DHT22;5620;53.570;9.718;2023-02-15T08:37:24;5.00;1.00
11132;DHT22;5620;53.570;9.718;2023-02-15T08:39:51;5.10;1.00
11132;DHT22;5620;53.570;9.718;2023-02-15T08:42:18;5.30;1.00
11132;DHT22;5620;53.570;9.718;2023-02-15T08:44:44;5.50;6.50
11132;DHT22;5620;53.570;9.718;2023-02-15T08:47:11;5.70;1.00
11132;DHT22;5620;53.570;9.718;2023-02-15T08:49:38;5.90;1.00
11132;DHT22;5620;53.570;9.718;2023-02-15T08:52:05;6.10;1.00
11132;DHT22;5620;53.570;9.718;2023-02-15T08:54:32;6.20;1.00
11132;DHT22;5620;53.570;9.718;2023-02-15T08:56:59;6.20;1.00
11132;DHT22;5620;53.570;9.718;2023-02-15T08:59:27;6.30;1.00
11132;DHT22;5620;53.570;9.718;2023-02-15T09:01:55;6.50;1.00
11132;DHT22;5620;53.570;9.718;2023-02-15T09:04:23;6.60;1.00
11132;DHT22;5620;53.570;9.718;2023-02-15T09:06:52;6.70;1.00
11132;DHT22;5620;53.570;9.718;2023-02-15T09:09:19;6.80;1.00
11132;DHT22;5620;53.570;9.718;2023-02-15T09:11:49;6.90;1.00
11132;DHT22;5620;53.570;9.718;2023-02-15T09:14:18;7.10;1.00
11132;DHT22;5620;53.570;9.718;2023-02-15T09:16:47;7.20;1.00
11132;DHT22;5620;53.570;9.718;2023-02-15T09:19:15;7.40;1.00
11132;DHT22;5620;53.570;9.718;2023-02-15T09:21:46;7.60;1.00
11132;DHT22;5620;53.570;9.718;2023-02-15T09:24:15;7.80;1.00
11132;DHT22;5620;53.570;9.718;2023-02-15T09:26:44;8.00;1.00
11132;DHT22;5620;53.570;9.718;2023-02-15T09:29:12;8.10;99.90
11132;DHT22;5620;53.570;9.718;2023-02-15T09:31:59;8.20;99.90
11132;DHT22;5620;53.570;9.718;2023-02-15T09:34:27;8.30;99.90
11132;DHT22;5620;53.570;9.718;2023-02-15T09:36:55;8.50;99.90
11132;DHT22;5620;53.570;9.718;2023-02-15T09:39:24;8.60;99.90
11132;DHT22;5620;53.570;9.718;2023-02-15T09:41:57;8.70;99.90
11132;DHT22;5620;53.570;9.718;2023-02-15T09:50:44;8.80;99.90
11132;DHT22;5620;53.570;9.718;2023-02-15T09:56:27;8.70;99.90
11132;DHT22;5620;53.570;9.718;2023-02-15T10:13:44;8.10;99.90
11132;DHT22;5620;53.570;9.718;2023-02-15T10:28:52;8.40;98.90
11132;DHT22;5620;53.570;9.718;2023-02-15T10:46:17;9.20;26.20
11132;DHT22;5620;53.570;9.718;2023-02-15T11:00:45;9.30;1.00
11132;DHT22;5620;53.570;9.718;2023-02-15T11:06:13;9.40;1.00
11132;DHT22;5620;53.570;9.718;2023-02-15T11:09:09;9.40;1.00
11132;DHT22;5620;53.570;9.718;2023-02-15T11:11:41;9.50;1.00
11132;DHT22;5620;53.570;9.718;2023-02-15T11:17:12;9.60;1.00
11132;DHT22;5620;53.570;9.718;2023-02-15T11:20:16;9.70;1.00
11132;DHT22;5620;53.570;9.718;2023-02-15T11:22:48;9.90;1.00
11132;DHT22;5620;53.570;9.718;2023-02-15T11:25:28;10.10;1.00
11132;DHT22;5620;53.570;9.718;2023-02-15T11:27:56;10.10;1.00
11132;DHT22;5620;53.570;9.718;2023-02-15T11:30:27;9.80;1.00
11132;DHT22;5620;53.570;9.718;2023-02-15T11:32:57;9.70;1.00
11132;DHT22;5620;53.570;9.718;2023-02-15T11:36:07;9.70;1.00
11132;DHT22;5620;53.570;9.718;2023-02-15T11:38:46;9.70;1.00
11132;DHT22;5620;53.570;9.718;2023-02-15T11:41:20;9.80;1.00
11132;DHT22;5620;53.570;9.718;2023-02-15T11:46:55;10.20;1.00
11132;DHT22;5620;53.570;9.718;2023-02-15T11:49:40;10.40;1.00
11132;DHT22;5620;53.570;9.718;2023-02-15T11:52:11;10.40;1.00
11132;DHT22;5620;53.570;9.718;2023-02-15T11:54:42;10.50;1.00
11132;DHT22;5620;53.570;9.718;2023-02-15T11:57:40;10.50;1.00
11132;DHT22;5620;53.570;9.718;2023-02-15T12:00:38;10.40;1.00
11132;DHT22;5620;53.570;9.718;2023-02-15T12:06:18;10.50;1.00
11132;DHT22;5620;53.570;9.718;2023-02-15T12:08:55;10.70;1.00
11132;DHT22;5620;53.570;9.718;2023-02-15T12:11:39;10.90;1.00
11132;DHT22;5620;53.570;9.718;2023-02-15T12:14:11;11.00;1.00
11132;DHT22;5620;53.570;9.718;2023-02-15T12:16:42;11.00;1.00
11132;DHT22;5620;53.570;9.718;2023-02-15T12:21:52;11.10;1.00
11132;DHT22;5620;53.570;9.718;2023-02-15T12:24:38;11.30;1.00
11132;DHT22;5620;53.570;9.718;2023-02-15T12:29:50;11.60;1.00
11132;DHT22;5620;53.570;9.718;2023-02-15T12:32:56;11.70;1.00
11132;DHT22;5620;53.570;9.718;2023-02-15T12:35:31;11.80;1.00
11132;DHT22;5620;53.570;9.718;2023-02-15T12:38:24;11.70;1.00
11132;DHT22;5620;53.570;9.718;2023-02-15T12:43:45;11.80;99.90
11132;DHT22;5620;53.570;9.718;2023-02-15T12:46:29;12.00;99.90
11132;DHT22;5620;53.570;9.718;2023-02-15T12:51:59;12.90;99.90
11132;DHT22;5620;53.570;9.718;2023-02-15T12:54:40;13.50;99.90
11132;DHT22;5620;53.570;9.718;2023-02-15T12:57:30;14.10;99.90
11132;DHT22;5620;53.570;9.718;2023-02-15T13:00:26;15.00;99.90
11132;DHT22;5620;53.570;9.718;2023-02-15T13:02:56;16.10;99.90
11132;DHT22;5620;53.570;9.718;2023-02-15T13:05:41;16.80;99.90
11132;DHT22;5620;53.570;9.718;2023-02-15T13:08:15;17.40;99.90
11132;DHT22;5620;53.570;9.718;2023-02-15T13:13:32;20.00;99.90
11132;DHT22;5620;53.570;9.718;2023-02-15T13:16:02;21.30;94.90
11132;DHT22;5620;53.570;9.718;2023-02-15T13:18:46;22.40;55.50
11132;DHT22;5620;53.570;9.718;2023-02-15T13:21:25;23.30;1.00
11132;DHT22;5620;53.570;9.718;2023-02-15T13:24:00;24.20;1.00
11132;DHT22;5620;53.570;9.718;2023-02-15T13:26:32;24.50;1.00
11132;DHT22;5620;53.570;9.718;2023-02-15T13:29:10;25.10;1.00
11132;DHT22;5620;53.570;9.718;2023-02-15T13:31:38;25.70;1.00
11132;DHT22;5620;53.570;9.718;2023-02-15T13:37:33;26.60;1.00
11132;DHT22;5620;53.570;9.718;2023-02-15T13:39:58;26.30;1.00
11132;DHT22;5620;53.570;9.718;2023-02-15T13:42:46;25.80;1.00
11132;DHT22;5620;53.570;9.718;2023-02-15T13:45:39;24.70;1.00
11132;DHT22;5620;53.570;9.718;2023-02-15T13:48:41;23.90;1.00
11132;DHT22;5620;53.570;9.718;2023-02-15T13:51:45;23.80;1.00
11132;DHT22;5620;53.570;9.718;2023-02-15T13:54:27;23.70;1.00
11132;DHT22;5620;53.570;9.718;2023-02-15T14:09:18;25.70;1.00
11132;DHT22;5620;53.570;9.718;2023-02-15T14:29:37;23.20;1.00
11132;DHT22;5620;53.570;9.718;2023-02-15T14:31:46;22.30;1.00
11132;DHT22;5620;53.570;9.718;2023-02-15T14:34:45;21.40;1.00
11132;DHT22;5620;53.570;9.718;2023-02-15T14:37:22;20.60;1.00
11132;DHT22;5620;53.570;9.718;2023-02-15T14:40:08;19.90;1.00
11132;DHT22;5620;53.570;9.718;2023-02-15T14:42:51;19.40;1.00
11132;DHT22;5620;53.570;9.718;2023-02-15T14:45:49;19.10;1.00
11132;DHT22;5620;53.570;9.718;2023-02-15T14:51:09;18.40;1.00
11132;DHT22;5620;53.570;9.718;2023-02-15T14:53:54;18.10;1.00
11132;DHT22;5620;53.570;9.718;2023-02-15T14:56:23;17.80;1.00
11132;DHT22;5620;53.570;9.718;2023-02-15T14:59:20;17.60;1.00
11132;DHT22;5620;53.570;9.718;2023-02-15T15:02:22;17.50;1.00
11132;DHT22;5620;53.570;9.718;2023-02-15T15:05:14;17.30;1.00
11132;DHT22;5620;53.570;9.718;2023-02-15T15:07:56;17.10;1.00
11132;DHT22;5620;53.570;9.718;2023-02-15T15:12:56;16.60;1.00
11132;DHT22;5620;53.570;9.718;2023-02-15T15:20:48;15.60;1.00
11132;DHT22;5620;53.570;9.718;2023-02-15T15:25:57;14.90;1.00
11132;DHT22;5620;53.570;9.718;2023-02-15T15:31:34;14.10;1.00
11132;DHT22;5620;53.570;9.718;2023-02-15T15:43:10;12.70;1.00
11132;DHT22;5620;53.570;9.718;2023-02-15T15:48:41;12.00;1.00
11132;DHT22;5620;53.570;9.718;2023-02-15T15:51:25;11.80;1.00
11132;DHT22;5620;53.570;9.718;2023-02-15T15:53:57;11.50;1.00
11132;DHT22;5620;53.570;9.718;2023-02-15T15:56:32;11.30;1.00
11132;DHT22;5620;53.570;9.718;2023-02-15T15:59:02;11.00;1.00
11132;DHT22;5620;53.570;9.718;2023-02-15T16:01:34;10.80;1.00
11132;DHT22;5620;53.570;9.718;2023-02-15T16:04:01;10.60;1.00
11132;DHT22;5620;53.570;9.718;2023-02-15T16:06:45;10.40;1.00
11132;DHT22;5620;53.570;9.718;2023-02-15T16:09:27;10.20;1.50
11132;DHT22;5620;53.570;9.718;2023-02-15T16:12:03;10.00;1.00
11132;DHT22;5620;53.570;9.718;2023-02-15T16:14:29;9.80;1.00
11132;DHT22;5620;53.570;9.718;2023-02-15T16:17:01;9.50;1.00
11132;DHT22;5620;53.570;9.718;2023-02-15T16:19:39;9.40;1.70
11132;DHT22;5620;53.570;9.718;2023-02-15T16:22:15;9.20;4.90
11132;DHT22;5620;53.570;9.718;2023-02-15T16:25:14;9.00;8.20
11132;DHT22;5620;53.570;9.718;2023-02-15T16:27:47;8.80;11.10
11132;DHT22;5620;53.570;9.718;2023-02-15T16:30:34;8.70;14.40
11132;DHT22;5620;53.570;9.718;2023-02-15T16:35:59;8.40;20.00
11132;DHT22;5620;53.570;9.718;2023-02-15T16:41:13;8.20;27.20
11132;DHT22;5620;53.570;9.718;2023-02-15T16:43:46;8.10;31.20
11132;DHT22;5620;53.570;9.718;2023-02-15T16:49:05;7.90;39.90
11132;DHT22;5620;53.570;9.718;2023-02-15T16:51:35;7.90;45.50
11132;DHT22;5620;53.570;9.718;2023-02-15T16:54:22;7.80;50.60
11132;DHT22;5620;53.570;9.718;2023-02-15T16:56:50;7.70;57.40
11132;DHT22;5620;53.570;9.718;2023-02-15T16:59:35;7.70;62.90
11132;DHT22;5620;53.570;9.718;2023-02-15T17:02:11;7.60;67.40
11132;DHT22;5620;53.570;9.718;2023-02-15T17:04:41;7.60;73.50
11132;DHT22;5620;53.570;9.718;2023-02-15T17:07:28;7.50;79.80
11132;DHT22;5620;53.570;9.718;2023-02-15T17:09:56;7.40;88.10
11132;DHT22;5620;53.570;9.718;2023-02-15T17:17:58;7.30;99.90
11132;DHT22;5620;53.570;9.718;2023-02-15T17:20:27;7.20;99.90
11132;DHT22;5620;53.570;9.718;2023-02-15T17:22:56;7.20;99.90
11132;DHT22;5620;53.570;9.718;2023-02-15T17:25:39;7.10;99.90
11132;DHT22;5620;53.570;9.718;2023-02-15T17:28:17;7.10;99.90
11132;DHT22;5620;53.570;9.718;2023-02-15T17:30:45;7.00;99.90
11132;DHT22;5620;53.570;9.718;2023-02-15T17:33:37;7.00;99.90
11132;DHT22;5620;53.570;9.718;2023-02-15T17:38:40;6.90;99.90
11132;DHT22;5620;53.570;9.718;2023-02-15T17:41:09;6.90;99.90
11132;DHT22;5620;53.570;9.718;2023-02-15T17:43:36;6.80;99.90
11132;DHT22;5620;53.570;9.718;2023-02-15T17:46:03;6.80;99.90
11132;DHT22;5620;53.570;9.718;2023-02-15T17:48:49;6.70;99.90
11132;DHT22;5620;53.570;9.718;2023-02-15T17:51:16;6.60;99.90
11132;DHT22;5620;53.570;9.718;2023-02-15T17:53:43;6.60;99.90
11132;DHT22;5620;53.570;9.718;2023-02-15T17:56:08;6.50;99.90
11132;DHT22;5620;53.570;9.718;2023-02-15T17:58:37;6.50;99.90
11132;DHT22;5620;53.570;9.718;2023-02-15T18:01:20;6.50;99.90
11132;DHT22;5620;53.570;9.718;2023-02-15T18:03:51;6.40;99.90
11132;DHT22;5620;53.570;9.718;2023-02-15T18:06:17;6.40;1.00
11132;DHT22;5620;53.570;9.718;2023-02-15T18:08:44;6.30;1.00
11132;DHT22;5620;53.570;9.718;2023-02-15T18:11:10;6.30;1.00
11132;DHT22;5620;53.570;9.718;2023-02-15T18:13:37;6.30;1.00
11132;DHT22;5620;53.570;9.718;2023-02-15T18:16:03;6.30;1.00
11132;DHT22;5620;53.570;9.718;2023-02-15T18:18:30;6.30;1.00
11132;DHT22;5620;53.570;9.718;2023-02-15T18:20:57;6.30;1.00
11132;DHT22;5620;53.570;9.718;2023-02-15T18:23:24;6.30;1.00
11132;DHT22;5620;53.570;9.718;2023-02-15T18:25:49;6.30;1.00
11132;DHT22;5620;53.570;9.718;2023-02-15T18:28:16;6.30;1.00
11132;DHT22;5620;53.570;9.718;2023-02-15T18:30:43;6.30;1.00
11132;DHT22;5620;53.570;9.718;2023-02-15T18:33:24;6.30;1.00
11132;DHT22;5620;53.570;9.718;2023-02-15T18:35:57;6.30;1.00
11132;DHT22;5620;53.570;9.718;2023-02-15T18:38:30;6.30;1.00
11132;DHT22;5620;53.570;9.718;2023-02-15T18:40:57;6.30;1.00
11132;DHT22;5620;53.570;9.718;2023-02-15T18:43:25;6.30;1.00
11132;DHT22;5620;53.570;9.718;2023-02-15T18:45:52;6.30;1.00
11132;DHT22;5620;53.570;9.718;2023-02-15T18:48:19;6.30;1.00
11132;DHT22;5620;53.570;9.718;2023-02-15T18:50:45;6.30;1.00
11132;DHT22;5620;53.570;9.718;2023-02-15T18:53:18;6.20;1.00
11132;DHT22;5620;53.570;9.718;2023-02-15T18:55:46;6.20;1.00
11132;DHT22;5620;53.570;9.718;2023-02-15T18:58:28;6.20;1.00
11132;DHT22;5620;53.570;9.718;2023-02-15T19:00:55;6.10;1.00
11132;DHT22;5620;53.570;9.718;2023-02-15T19:03:21;6.10;1.00
11132;DHT22;5620;53.570;9.718;2023-02-15T19:05:47;6.00;1.00
11132;DHT22;5620;53.570;9.718;2023-02-15T19:08:18;6.00;1.00
11132;DHT22;5620;53.570;9.718;2023-02-15T19:10:45;5.90;1.00
11132;DHT22;5620;53.570;9.718;2023-02-15T19:13:12;5.90;1.00
11132;DHT22;5620;53.570;9.718;2023-02-15T19:15:39;5.80;1.00
11132;DHT22;5620;53.570;9.718;2023-02-15T19:18:07;5.80;12.50
11132;DHT22;5620;53.570;9.718;2023-02-15T19:20:43;5.80;25.30
11132;DHT22;5620;53.570;9.718;2023-02-15T19:23:21;5.70;43.90
11132;DHT22;5620;53.570;9.718;2023-02-15T19:25:49;5.70;57.30
11132;DHT22;5620;53.570;9.718;2023-02-15T19:28:29;5.70;58.70
11132;DHT22;5620;53.570;9.718;2023-02-15T19:30:57;5.70;73.90
11132;DHT22;5620;53.570;9.718;2023-02-15T19:33:22;5.60;81.20
11132;DHT22;5620;53.570;9.718;2023-02-15T19:35:51;5.60;89.10
11132;DHT22;5620;53.570;9.718;2023-02-15T19:38:22;5.60;93.70
11132;DHT22;5620;53.570;9.718;2023-02-15T19:40:49;5.60;98.60
11132;DHT22;5620;53.570;9.718;2023-02-15T19:43:20;5.60;99.90
11132;DHT22;5620;53.570;9.718;2023-02-15T19:46:04;5.60;99.90
11132;DHT22;5620;53.570;9.718;2023-02-15T19:48:29;5.50;99.90
11132;DHT22;5620;53.570;9.718;2023-02-15T19:50:58;5.50;99.90
11132;DHT22;5620;53.570;9.718;2023-02-15T19:53:26;5.50;99.90
11132;DHT22;5620;53.570;9.718;2023-02-15T19:55:54;5.50;99.90
11132;DHT22;5620;53.570;9.718;2023-02-15T19:58:21;5.50;99.90
11132;DHT22;5620;53.570;9.718;2023-02-15T20:00:50;5.40;99.90